createdAt,value
2023-04-15T00:00:56.182Z,101011.59
2023-04-15T00:03:23.082Z,101014.81
2023-04-15T00:05:49.739Z,101027.69
2023-04-15T00:08:16.209Z,101019.03
2023-04-15T00:10:44.193Z,101022.31
2023-04-15T00:13:10.672Z,101025.66
2023-04-15T00:15:37.693Z,101020.41
2023-04-15T00:18:04.449Z,101025.38
2023-04-15T00:20:31.428Z,101021.78
2023-04-15T00:22:59.403Z,101027.88
2023-04-15T00:25:25.913Z,101019.69
2023-04-15T00:27:52.593Z,101016.97
2023-04-15T00:30:19.638Z,101018.25
2023-04-15T00:32:46.838Z,101017.81
2023-04-15T00:35:13.849Z,101026.66
2023-04-15T00:37:40.447Z,101017.59
2023-04-15T00:40:12.214Z,101013.25
2023-04-15T00:42:39.409Z,101016.78
2023-04-15T00:45:07.075Z,101016.59
2023-04-15T00:47:35.588Z,101018.66
2023-04-15T00:50:02.159Z,101024.53
2023-04-15T00:52:28.613Z,101030.09
2023-04-15T00:54:55.479Z,101024.41
2023-04-15T00:57:22.818Z,101023.66
2023-04-15T00:59:49.385Z,101023.81
2023-04-15T01:02:16.577Z,101028.44
2023-04-15T01:04:43.527Z,101029.13
2023-04-15T01:07:09.928Z,101031.63
2023-04-15T01:09:36.460Z,101026.53
2023-04-15T01:12:04.065Z,101026.78
2023-04-15T01:14:30.678Z,101027.84
2023-04-15T01:16:57.596Z,101031.53
2023-04-15T01:19:24.251Z,101031.31
2023-04-15T01:21:50.703Z,101023.19
2023-04-15T01:24:18.636Z,101027.19
2023-04-15T01:26:45.488Z,101026.97
2023-04-15T01:29:12.062Z,101026.63
2023-04-15T01:31:39.169Z,101031.88
2023-04-15T01:34:06.052Z,101029.22
2023-04-15T01:36:32.550Z,101028.41
2023-04-15T01:38:59.444Z,101025.97
2023-04-15T01:41:27.501Z,101022.88
2023-04-15T01:43:54.172Z,101033.19
2023-04-15T01:46:20.957Z,101026.56
2023-04-15T01:48:47.387Z,101025.38
2023-04-15T01:51:13.863Z,101034.94
2023-04-15T01:53:40.602Z,101030.41
2023-04-15T01:56:07.321Z,101033.50
2023-04-15T01:58:33.861Z,101037.50
2023-04-15T02:01:00.632Z,101035.50
2023-04-15T02:03:29.570Z,101029.38
2023-04-15T02:05:56.726Z,101035.50
2023-04-15T02:08:23.280Z,101037.38
2023-04-15T02:10:49.715Z,101040.25
2023-04-15T02:13:17.023Z,101036.88
2023-04-15T02:15:49.971Z,101047.72
2023-04-15T02:18:16.796Z,101042.44
2023-04-15T02:20:47.050Z,101039.72
2023-04-15T02:23:13.721Z,101046.13
2023-04-15T02:25:40.467Z,101053.13
2023-04-15T02:28:07.191Z,101047.72
2023-04-15T02:30:33.929Z,101048.81
2023-04-15T02:33:02.344Z,101051.03
2023-04-15T02:35:28.851Z,101051.31
2023-04-15T02:37:55.704Z,101058.59
2023-04-15T02:40:22.176Z,101064.72
2023-04-15T02:42:48.614Z,101058.06
2023-04-15T02:45:15.093Z,101071.63
2023-04-15T02:47:41.672Z,101068.75
2023-04-15T02:50:09.904Z,101067.69
2023-04-15T02:52:36.325Z,101078.66
2023-04-15T02:55:04.323Z,101074.59
2023-04-15T02:57:30.990Z,101079.06
2023-04-15T02:59:57.522Z,101087.34
2023-04-15T03:02:24.302Z,101093.16
2023-04-15T03:04:51.176Z,101082.72
2023-04-15T03:07:18.180Z,101083.78
2023-04-15T03:09:45.698Z,101088.81
2023-04-15T03:12:12.205Z,101093.00
2023-04-15T03:14:38.574Z,101093.03
2023-04-15T03:17:05.019Z,101090.06
2023-04-15T03:19:31.825Z,101100.09
2023-04-15T03:21:58.318Z,101087.63
2023-04-15T03:24:24.942Z,101091.66
2023-04-15T03:26:51.437Z,101089.38
2023-04-15T03:29:17.861Z,101104.00
2023-04-15T03:31:44.257Z,101089.22
2023-04-15T03:34:10.657Z,101092.50
2023-04-15T03:36:37.231Z,101091.00
2023-04-15T03:39:04.368Z,101104.38
2023-04-15T03:41:31.030Z,101103.72
2023-04-15T03:43:57.523Z,101108.19
2023-04-15T03:46:24.105Z,101114.94
2023-04-15T03:48:50.578Z,101116.44
2023-04-15T03:51:16.996Z,101121.03
2023-04-15T03:53:43.410Z,101125.09
2023-04-15T03:56:09.846Z,101122.53
2023-04-15T03:58:36.685Z,101123.31
2023-04-15T04:01:03.224Z,101127.66
2023-04-15T04:03:29.783Z,101129.31
2023-04-15T04:05:56.656Z,101139.06
2023-04-15T04:08:23.082Z,101144.84
2023-04-15T04:10:49.497Z,101137.25
2023-04-15T04:13:15.887Z,101147.81
2023-04-15T04:15:42.384Z,101146.75
2023-04-15T04:18:08.841Z,101147.53
2023-04-15T04:20:35.840Z,101144.03
2023-04-15T04:23:02.231Z,101145.91
2023-04-15T04:25:28.639Z,101160.28
2023-04-15T04:27:55.053Z,101156.31
2023-04-15T04:30:21.476Z,101164.88
2023-04-15T04:32:50.193Z,101167.19
2023-04-15T04:35:16.626Z,101169.34
2023-04-15T04:37:43.089Z,101170.44
2023-04-15T04:40:10.605Z,101170.00
2023-04-15T04:42:39.779Z,101182.28
2023-04-15T04:45:07.373Z,101182.72
2023-04-15T04:47:33.831Z,101192.28
2023-04-15T04:50:00.249Z,101199.72
2023-04-15T04:52:26.637Z,101197.13
2023-04-15T04:54:53.047Z,101200.63
2023-04-15T04:57:19.435Z,101207.28
2023-04-15T04:59:45.807Z,101212.03
2023-04-15T05:02:12.356Z,101216.81
2023-04-15T05:04:39.111Z,101221.69
2023-04-15T05:07:05.501Z,101223.59
2023-04-15T05:09:32.556Z,101219.06
2023-04-15T05:11:59.417Z,101229.03
2023-04-15T05:14:26.015Z,101220.03
2023-04-15T05:16:52.492Z,101219.47
2023-04-15T05:19:18.934Z,101234.25
2023-04-15T05:21:45.346Z,101226.41
2023-04-15T05:24:11.842Z,101231.13
2023-04-15T05:26:38.404Z,101228.09
2023-04-15T05:29:05.159Z,101240.78
2023-04-15T05:31:31.854Z,101242.16
2023-04-15T05:33:58.484Z,101245.50
2023-04-15T05:36:24.877Z,101246.03
2023-04-15T05:38:51.333Z,101252.66
2023-04-15T05:41:19.737Z,101258.78
2023-04-15T05:43:46.443Z,101266.75
2023-04-15T05:46:12.926Z,101273.22
2023-04-15T05:48:39.475Z,101274.97
2023-04-15T05:51:06.401Z,101273.91
2023-04-15T05:53:32.893Z,101277.50
2023-04-15T05:55:59.361Z,101285.78
2023-04-15T05:58:25.991Z,101281.31
2023-04-15T06:00:53.007Z,101289.88
2023-04-15T06:03:23.002Z,101285.69
2023-04-15T06:05:49.827Z,101300.63
2023-04-15T06:08:16.272Z,101296.16
2023-04-15T06:10:42.726Z,101299.66
2023-04-15T06:13:09.149Z,101305.94
2023-04-15T06:15:35.853Z,101307.16
2023-04-15T06:18:03.117Z,101311.53
2023-04-15T06:20:29.635Z,101312.91
2023-04-15T06:22:56.327Z,101323.00
2023-04-15T06:25:23.032Z,101324.47
2023-04-15T06:27:49.500Z,101323.34
2023-04-15T06:30:16.028Z,101329.63
2023-04-15T06:32:42.521Z,101325.50
2023-04-15T06:35:09.447Z,101331.38
2023-04-15T06:37:36.429Z,101326.06
2023-04-15T06:40:05.011Z,101333.16
2023-04-15T06:42:31.610Z,101342.59
2023-04-15T06:44:58.042Z,101353.38
2023-04-15T06:47:24.463Z,101346.81
2023-04-15T06:49:50.921Z,101359.81
2023-04-15T06:52:17.604Z,101359.72
2023-04-15T06:54:44.021Z,101355.03
2023-04-15T06:57:10.531Z,101362.03
2023-04-15T06:59:36.987Z,101368.81
2023-04-15T07:02:03.528Z,101371.41
2023-04-15T07:04:30.062Z,101385.53
2023-04-15T07:06:56.910Z,101382.41
2023-04-15T07:09:24.113Z,101389.50
2023-04-15T07:11:51.508Z,101383.09
2023-04-15T07:14:18.359Z,101395.72
2023-04-15T07:16:44.809Z,101398.78
2023-04-15T07:19:11.733Z,101400.41
2023-04-15T07:21:39.987Z,101406.28
2023-04-15T07:24:07.866Z,101411.41
2023-04-15T07:26:34.380Z,101411.47
2023-04-15T07:29:01.224Z,101412.50
2023-04-15T07:31:28.110Z,101410.53
2023-04-15T07:33:54.602Z,101416.69
2023-04-15T07:36:21.006Z,101414.94
2023-04-15T07:38:47.668Z,101427.94
2023-04-15T07:41:14.250Z,101420.13
2023-04-15T07:43:40.659Z,101432.59
2023-04-15T07:46:07.249Z,101430.34
2023-04-15T07:48:34.492Z,101439.53
2023-04-15T07:51:02.759Z,101427.00
2023-04-15T07:53:29.233Z,101446.25
2023-04-15T07:55:55.936Z,101438.03
2023-04-15T07:58:22.390Z,101445.81
2023-04-15T08:00:49.009Z,101441.56
2023-04-15T08:03:15.700Z,101454.81
2023-04-15T08:05:42.265Z,101458.47
2023-04-15T08:08:08.848Z,101451.56
2023-04-15T08:10:35.577Z,101458.97
2023-04-15T08:13:02.196Z,101469.91
2023-04-15T08:15:28.704Z,101463.25
2023-04-15T08:17:55.155Z,101471.47
2023-04-15T08:20:21.685Z,101471.66
2023-04-15T08:22:51.796Z,101477.47
2023-04-15T08:25:19.844Z,101466.13
2023-04-15T08:27:46.574Z,101470.75
2023-04-15T08:30:13.373Z,101474.19
2023-04-15T08:32:41.770Z,101480.63
2023-04-15T08:35:09.193Z,101488.97
2023-04-15T08:37:35.697Z,101486.09
2023-04-15T08:40:02.059Z,101489.69
2023-04-15T08:42:32.705Z,101495.81
2023-04-15T08:45:05.152Z,101499.63
2023-04-15T08:47:33.807Z,101511.53
2023-04-15T08:50:04.315Z,101507.31
2023-04-15T08:52:31.537Z,101509.84
2023-04-15T08:55:00.568Z,101520.56
2023-04-15T08:57:28.675Z,101519.47
2023-04-15T08:59:58.808Z,101527.94
2023-04-15T09:02:27.245Z,101519.47
2023-04-15T09:04:54.193Z,101528.44
2023-04-15T09:07:20.596Z,101529.34
2023-04-15T09:09:48.544Z,101531.56
2023-04-15T09:12:16.832Z,101540.38
2023-04-15T09:14:46.207Z,101536.00
2023-04-15T09:17:12.692Z,101547.69
2023-04-15T09:19:39.245Z,101555.81
2023-04-15T09:22:06.421Z,101556.31
2023-04-15T09:24:37.545Z,101560.94
2023-04-15T09:27:04.198Z,101554.03
2023-04-15T09:29:31.320Z,101562.84
2023-04-15T09:32:09.636Z,101564.88
2023-04-15T09:34:37.137Z,101563.31
2023-04-15T09:37:04.148Z,101581.63
2023-04-15T09:39:50.025Z,101576.25
2023-04-15T09:42:17.627Z,101578.00
2023-04-15T09:44:44.317Z,101577.22
2023-04-15T09:47:27.691Z,101567.00
2023-04-15T09:49:58.414Z,101570.59
2023-04-15T09:52:25.044Z,101575.19
2023-04-15T09:54:55.810Z,101577.81
2023-04-15T09:57:23.604Z,101575.38
2023-04-15T09:59:51.032Z,101578.84
2023-04-15T10:02:20.864Z,101585.28
2023-04-15T10:04:48.923Z,101588.59
2023-04-15T10:07:15.928Z,101594.19
2023-04-15T10:09:45.745Z,101590.28
2023-04-15T10:12:13.125Z,101601.66
2023-04-15T10:14:41.410Z,101605.47
2023-04-15T10:17:08.359Z,101600.59
2023-04-15T10:19:37.653Z,101602.69
2023-04-15T10:22:04.962Z,101598.53
2023-04-15T10:24:32.082Z,101599.00
2023-04-15T10:26:59.904Z,101601.66
2023-04-15T10:29:29.317Z,101600.78
2023-04-15T10:31:56.897Z,101606.56
2023-04-15T10:34:24.719Z,101598.00
2023-04-15T10:36:51.984Z,101586.75
2023-04-15T10:39:51.063Z,101604.47
2023-04-15T10:42:19.783Z,101609.69
2023-04-15T10:44:51.877Z,101612.06
2023-04-15T10:47:21.316Z,101621.03
2023-04-15T10:49:57.934Z,101622.75
2023-04-15T10:52:27.598Z,101627.81
2023-04-15T10:55:16.402Z,101624.88
2023-04-15T10:57:43.847Z,101621.91
2023-04-15T11:00:14.549Z,101635.69
2023-04-15T11:02:57.669Z,101632.28
2023-04-15T11:05:51.592Z,101637.47
2023-04-15T11:08:18.113Z,101630.94
2023-04-15T11:10:44.726Z,101640.22
2023-04-15T11:13:11.386Z,101646.88
2023-04-15T11:15:40.987Z,101643.31
2023-04-15T11:18:23.692Z,101645.06
2023-04-15T11:20:51.518Z,101636.50
2023-04-15T11:23:19.587Z,101641.47
2023-04-15T11:25:46.268Z,101643.16
2023-04-15T11:28:13.705Z,101646.34
2023-04-15T11:30:40.800Z,101645.72
2023-04-15T11:33:09.543Z,101640.31
2023-04-15T11:35:36.674Z,101654.50
2023-04-15T11:38:10.252Z,101652.84
2023-04-15T11:40:37.653Z,101654.47
2023-04-15T11:43:24.451Z,101657.69
2023-04-15T11:45:53.131Z,101653.38
2023-04-15T11:48:22.975Z,101647.81
2023-04-15T11:50:58.034Z,101655.25
2023-04-15T11:53:25.223Z,101662.38
2023-04-15T11:55:53.977Z,101654.09
2023-04-15T11:58:25.219Z,101663.00
2023-04-15T12:00:59.079Z,101673.03
2023-04-15T12:03:29.929Z,101676.66
2023-04-15T12:06:19.027Z,101675.38
2023-04-15T12:08:53.118Z,101671.28
2023-04-15T12:11:45.326Z,101679.56
2023-04-15T12:14:16.893Z,101692.69
2023-04-15T12:16:47.851Z,101699.63
2023-04-15T12:19:43.193Z,101691.94
2023-04-15T12:22:11.197Z,101702.94
2023-04-15T12:24:39.091Z,101703.47
2023-04-15T12:27:11.227Z,101711.06
2023-04-15T12:29:39.778Z,101708.97
2023-04-15T12:32:12.143Z,101716.81
2023-04-15T12:34:41.325Z,101717.09
2023-04-15T12:37:11.891Z,101721.41
2023-04-15T12:39:41.060Z,101722.03
2023-04-15T12:42:08.600Z,101709.13
2023-04-15T12:44:36.837Z,101716.66
2023-04-15T12:47:03.693Z,101724.66
2023-04-15T12:49:32.527Z,101722.50
2023-04-15T12:52:00.735Z,101734.31
2023-04-15T12:54:28.680Z,101736.47
2023-04-15T12:56:55.849Z,101741.69
2023-04-15T12:59:24.103Z,101748.63
2023-04-15T13:01:52.545Z,101736.63
2023-04-15T13:04:20.626Z,101755.63
2023-04-15T13:06:47.386Z,101756.88
2023-04-15T13:09:13.896Z,101763.72
2023-04-15T13:11:40.796Z,101755.91
2023-04-15T13:14:09.107Z,101759.53
2023-04-15T13:16:36.268Z,101768.56
2023-04-15T13:19:03.971Z,101787.63
2023-04-15T13:21:32.173Z,101782.41
2023-04-15T13:23:59.407Z,101793.06
2023-04-15T13:26:25.916Z,101788.97
2023-04-15T13:28:52.462Z,101788.53
2023-04-15T13:31:18.977Z,101786.94
2023-04-15T13:33:45.430Z,101785.03
2023-04-15T13:36:12.149Z,101795.44
2023-04-15T13:38:38.622Z,101797.53
2023-04-15T13:41:05.388Z,101800.44
2023-04-15T13:43:34.211Z,101797.25
2023-04-15T13:46:01.595Z,101811.50
2023-04-15T13:48:28.873Z,101804.56
2023-04-15T13:50:55.344Z,101808.03
2023-04-15T13:53:21.833Z,101813.97
2023-04-15T13:56:06.206Z,101826.00
2023-04-15T13:58:32.877Z,101822.63
2023-04-15T14:00:59.358Z,101827.84
2023-04-15T14:03:26.055Z,101819.97
2023-04-15T14:05:55.952Z,101828.53
2023-04-15T14:08:22.902Z,101828.63
2023-04-15T14:10:49.482Z,101831.59
2023-04-15T14:13:16.022Z,101844.16
2023-04-15T14:15:42.428Z,101842.28
2023-04-15T14:18:09.116Z,101845.22
2023-04-15T14:20:35.549Z,101853.72
2023-04-15T14:23:01.942Z,101849.50
2023-04-15T14:25:33.757Z,101864.94
2023-04-15T14:28:00.826Z,101868.81
2023-04-15T14:30:27.299Z,101869.84
2023-04-15T14:32:54.982Z,101876.81
2023-04-15T14:35:21.489Z,101880.25
2023-04-15T14:37:47.945Z,101885.09
2023-04-15T14:40:14.336Z,101890.31
2023-04-15T14:42:40.881Z,101880.53
2023-04-15T14:45:08.010Z,101882.81
2023-04-15T14:47:34.481Z,101888.03
2023-04-15T14:50:00.966Z,101890.63
2023-04-15T14:52:27.343Z,101906.06
2023-04-15T14:54:53.999Z,101902.81
2023-04-15T14:57:20.513Z,101904.16
2023-04-15T14:59:47.056Z,101918.91
2023-04-15T15:02:17.323Z,101914.66
2023-04-15T15:04:53.063Z,101923.59
2023-04-15T15:07:19.559Z,101926.50
2023-04-15T15:09:46.104Z,101933.13
2023-04-15T15:12:12.501Z,101923.56
2023-04-15T15:14:39.141Z,101936.44
2023-04-15T15:17:05.786Z,101936.22
2023-04-15T15:19:32.370Z,101940.72
2023-04-15T15:21:58.778Z,101948.94
2023-04-15T15:24:25.157Z,101943.91
2023-04-15T15:26:51.958Z,101947.94
2023-04-15T15:29:18.695Z,101944.34
2023-04-15T15:31:45.200Z,101952.09
2023-04-15T15:34:11.635Z,101947.31
2023-04-15T15:36:38.093Z,101952.72
2023-04-15T15:39:05.255Z,101950.13
2023-04-15T15:41:33.339Z,101960.31
2023-04-15T15:44:00.153Z,101957.88
2023-04-15T15:46:28.190Z,101970.63
2023-04-15T15:48:54.912Z,101962.94
2023-04-15T15:51:21.309Z,101965.88
2023-04-15T15:53:47.883Z,101976.81
2023-04-15T15:56:14.391Z,101967.97
2023-04-15T15:58:42.007Z,101964.22
2023-04-15T16:01:08.551Z,101968.22
2023-04-15T16:03:35.227Z,101976.81
2023-04-15T16:06:01.836Z,101984.84
2023-04-15T16:08:28.219Z,101983.25
2023-04-15T16:10:54.974Z,101999.63
2023-04-15T16:13:21.993Z,102002.66
2023-04-15T16:15:50.219Z,101996.16
2023-04-15T16:18:17.413Z,102001.84
2023-04-15T16:20:44.124Z,102009.13
2023-04-15T16:23:15.936Z,102011.44
2023-04-15T16:25:43.658Z,102002.44
2023-04-15T16:28:25.148Z,102012.53
2023-04-15T16:30:53.112Z,102015.53
2023-04-15T16:33:19.516Z,102016.78
2023-04-15T16:35:45.896Z,102018.34
2023-04-15T16:38:12.336Z,102023.38
2023-04-15T16:40:38.909Z,102033.47
2023-04-15T16:43:07.390Z,102039.09
2023-04-15T16:45:33.929Z,102034.06
2023-04-15T16:48:00.509Z,102039.47
2023-04-15T16:50:27.183Z,102040.41
2023-04-15T16:52:54.058Z,102043.00
2023-04-15T16:55:20.582Z,102038.94
2023-04-15T16:58:02.245Z,102050.41
2023-04-15T17:00:31.070Z,102046.59
2023-04-15T17:02:57.973Z,102049.31
2023-04-15T17:05:24.665Z,102054.94
2023-04-15T17:07:51.133Z,102054.81
2023-04-15T17:10:17.722Z,102057.03
2023-04-15T17:12:44.262Z,102060.03
2023-04-15T17:15:11.066Z,102053.50
2023-04-15T17:17:37.534Z,102057.63
2023-04-15T17:20:04.269Z,102060.63
2023-04-15T17:22:30.711Z,102067.88
2023-04-15T17:24:57.140Z,102075.25
2023-04-15T17:27:24.650Z,102070.06
2023-04-15T17:29:51.064Z,102076.06
2023-04-15T17:32:17.664Z,102086.69
2023-04-15T17:34:49.603Z,102083.31
2023-04-15T17:37:17.347Z,102081.50
2023-04-15T17:39:43.836Z,102080.97
2023-04-15T17:42:11.228Z,102082.59
2023-04-15T17:44:37.630Z,102082.59
2023-04-15T17:47:04.132Z,102085.50
2023-04-15T17:49:31.679Z,102092.56
2023-04-15T17:51:58.046Z,102097.06
2023-04-15T17:54:24.421Z,102099.66
2023-04-15T17:56:51.637Z,102106.47
2023-04-15T17:59:18.315Z,102109.06
2023-04-15T18:01:45.521Z,102115.19
2023-04-15T18:04:12.366Z,102110.25
2023-04-15T18:06:39.302Z,102120.75
2023-04-15T18:09:06.654Z,102117.22
2023-04-15T18:11:33.476Z,102115.19
2023-04-15T18:14:02.169Z,102115.19
2023-04-15T18:16:28.685Z,102122.53
2023-04-15T18:18:55.516Z,102129.06
2023-04-15T18:21:22.161Z,102130.84
2023-04-15T18:23:48.587Z,102131.63
2023-04-15T18:26:14.956Z,102138.06
2023-04-15T18:28:41.360Z,102132.88
2023-04-15T18:31:08.460Z,102140.50
2023-04-15T18:33:35.906Z,102142.13
2023-04-15T18:36:05.254Z,102143.91
2023-04-15T18:38:31.825Z,102148.97
2023-04-15T18:40:58.773Z,102151.81
2023-04-15T18:43:25.328Z,102149.34
2023-04-15T18:45:52.455Z,102160.94
2023-04-15T18:48:19.094Z,102151.13
2023-04-15T18:50:45.528Z,102152.34
2023-04-15T18:53:11.979Z,102159.28
2023-04-15T18:55:39.846Z,102163.66
2023-04-15T18:58:09.113Z,102161.47
2023-04-15T19:00:38.914Z,102168.38
2023-04-15T19:03:06.319Z,102172.06
2023-04-15T19:05:33.215Z,102174.00
2023-04-15T19:07:59.870Z,102182.69
2023-04-15T19:10:28.013Z,102193.19
2023-04-15T19:12:55.147Z,102188.13
2023-04-15T19:15:21.588Z,102190.31
2023-04-15T19:17:48.075Z,102191.09
2023-04-15T19:20:14.788Z,102184.88
2023-04-15T19:22:42.959Z,102182.16
2023-04-15T19:25:09.762Z,102184.03
2023-04-15T19:27:38.108Z,102183.22
2023-04-15T19:30:07.692Z,102196.03
2023-04-15T19:32:35.124Z,102195.34
2023-04-15T19:35:01.633Z,102192.88
2023-04-15T19:37:28.146Z,102193.69
2023-04-15T19:39:55.678Z,102198.06
2023-04-15T19:42:23.667Z,102201.03
2023-04-15T19:44:50.083Z,102202.56
2023-04-15T19:47:16.641Z,102200.66
2023-04-15T19:49:43.403Z,102202.44
2023-04-15T19:52:09.916Z,102201.59
2023-04-15T19:54:36.482Z,102210.75
2023-04-15T19:57:02.993Z,102208.16
2023-04-15T19:59:29.388Z,102213.34
2023-04-15T20:01:55.879Z,102216.97
2023-04-15T20:04:22.622Z,102219.44
2023-04-15T20:06:49.680Z,102217.13
2023-04-15T20:09:16.301Z,102223.94
2023-04-15T20:12:47.503Z,102218.50
2023-04-15T20:14:29.646Z,102216.59
2023-04-15T20:16:56.114Z,102215.66
2023-04-15T20:19:22.562Z,102218.25
2023-04-15T20:21:50.789Z,102213.19
2023-04-15T20:24:19.810Z,102224.34
2023-04-15T20:26:46.262Z,102219.31
2023-04-15T20:29:13.523Z,102228.84
2023-04-15T20:31:39.961Z,102226.28
2023-04-15T20:34:06.454Z,102233.06
2023-04-15T20:36:33.480Z,102227.88
2023-04-15T20:38:59.976Z,102226.28
2023-04-15T20:41:26.438Z,102226.28
2023-04-15T20:43:52.825Z,102229.94
2023-04-15T20:46:21.392Z,102220.53
2023-04-15T20:48:48.539Z,102222.16
2023-04-15T20:51:15.539Z,102225.84
2023-04-15T20:53:42.283Z,102232.63
2023-04-15T20:56:09.116Z,102224.19
2023-04-15T20:58:35.575Z,102225.00
2023-04-15T21:01:02.324Z,102223.50
2023-04-15T21:03:28.943Z,102233.03
2023-04-15T21:05:55.864Z,102229.75
2023-04-15T21:08:29.238Z,102236.47
2023-04-15T21:10:56.917Z,102246.69
2023-04-15T21:13:23.886Z,102235.47
2023-04-15T21:15:53.321Z,102245.72
2023-04-15T21:18:23.058Z,102250.31
2023-04-15T21:20:56.624Z,102243.38
2023-04-15T21:23:23.169Z,102246.09
2023-04-15T21:25:49.841Z,102246.09
2023-04-15T21:28:16.265Z,102250.59
2023-04-15T21:30:42.839Z,102243.91
2023-04-15T21:33:09.262Z,102256.00
2023-04-15T21:35:35.645Z,102251.69
2023-04-15T21:38:02.045Z,102253.44
2023-04-15T21:40:28.526Z,102243.78
2023-04-15T21:42:54.944Z,102249.78
2023-04-15T21:45:21.677Z,102249.09
2023-04-15T21:47:56.889Z,102244.72
2023-04-15T21:50:32.249Z,102245.53
2023-04-15T21:52:58.631Z,102244.72
2023-04-15T21:55:25.338Z,102263.53
2023-04-15T21:57:51.719Z,102270.59
2023-04-15T22:00:18.111Z,102269.53
2023-04-15T22:02:44.711Z,102271.97
2023-04-15T22:05:11.706Z,102271.84
2023-04-15T22:07:38.094Z,102273.50
2023-04-15T22:10:05.155Z,102276.75
2023-04-15T22:12:31.783Z,102272.56
2023-04-15T22:14:58.201Z,102273.34
2023-04-15T22:17:25.395Z,102282.66
2023-04-15T22:19:51.765Z,102277.34
2023-04-15T22:22:18.130Z,102278.16
2023-04-15T22:24:46.490Z,102274.59
2023-04-15T22:27:12.866Z,102278.84
2023-04-15T22:29:39.294Z,102276.13
2023-04-15T22:32:05.912Z,102275.19
2023-04-15T22:34:32.368Z,102279.66
2023-04-15T22:36:59.045Z,102284.81
2023-04-15T22:39:25.470Z,102285.78
2023-04-15T22:41:51.825Z,102287.41
2023-04-15T22:44:18.277Z,102287.28
2023-04-15T22:46:44.734Z,102291.66
2023-04-15T22:49:11.101Z,102291.66
2023-04-15T22:51:38.179Z,102286.47
2023-04-15T22:54:04.547Z,102292.47
2023-04-15T22:56:31.062Z,102295.88
2023-04-15T22:58:57.487Z,102296.81
2023-04-15T23:01:23.946Z,102294.91
2023-04-15T23:03:55.616Z,102301.75
2023-04-15T23:06:24.051Z,102307.72
2023-04-15T23:08:50.941Z,102304.19
2023-04-15T23:11:18.393Z,102312.78
2023-04-15T23:13:44.748Z,102316.22
2023-04-15T23:16:11.289Z,102309.38
2023-04-15T23:18:37.706Z,102307.59
2023-04-15T23:21:04.277Z,102316.09
2023-04-15T23:23:31.177Z,102321.38
2023-04-15T23:25:57.551Z,102317.81
2023-04-15T23:28:23.993Z,102313.50
2023-04-15T23:30:50.410Z,102319.47
2023-04-15T23:33:16.800Z,102318.66
2023-04-15T23:35:43.328Z,102325.59
2023-04-15T23:38:09.746Z,102329.03
2023-04-15T23:40:36.132Z,102320.41
2023-04-15T23:43:02.512Z,102321.25
2023-04-15T23:45:29.049Z,102329.03
2023-04-15T23:47:55.505Z,102334.19
2023-04-15T23:50:22.156Z,102330.91
2023-04-15T23:52:48.620Z,102326.69
2023-04-15T23:55:15.073Z,102329.16
2023-04-15T23:57:41.475Z,102327.38
